METAR Data
IDs: Format: Raw Decoded Include TAF

Data at: 1802 UTC 03 Jul 2020

METAR for:KCMH (Columbus Intl, OH, US)
Text:KCMH 031751Z 32010KT 10SM SCT060 SCT250 33/14 A3002 RMK AO2 SLP156 T03280139 10333 20228 58006
Temperature: 32.8°C ( 91°F)
Dewpoint: 13.9°C ( 57°F) [RH = 32%]
Pressure (altimeter):30.02 inches Hg (1016.7 mb) [Sea level pressure: 1015.6 mb]
Winds:from the NW (320 degrees) at 12 MPH (10 knots; 5.1 m/s)
Visibility:10 or more sm (16+ km)
Ceiling:at least 12,000 feet AGL
Clouds: scattered clouds at 6000 feet AGL, scattered clouds at 25000 feet AGL